createdAt,value
2022-11-16T00:01:31.021Z,26.13
2022-11-16T00:04:00.933Z,26.70
2022-11-16T00:06:35.646Z,26.60
2022-11-16T00:09:26.767Z,26.70
2022-11-16T00:11:56.677Z,24.33
2022-11-16T00:14:27.617Z,26.43
2022-11-16T00:16:56.091Z,25.90
2022-11-16T00:19:24.688Z,25.60
2022-11-16T00:21:56.620Z,26.30
2022-11-16T00:24:26.823Z,25.13
2022-11-16T00:26:56.183Z,26.57
2022-11-16T00:29:26.480Z,26.10
2022-11-16T00:31:57.660Z,29.30
2022-11-16T00:34:26.484Z,27.87
2022-11-16T00:36:56.853Z,26.23
2022-11-16T00:39:26.353Z,26.70
2022-11-16T00:41:55.633Z,25.73
2022-11-16T00:44:23.884Z,28.53
2022-11-16T00:46:52.066Z,27.10
2022-11-16T00:49:20.091Z,28.10
2022-11-16T00:51:50.600Z,29.60
2022-11-16T00:54:18.816Z,27.57
2022-11-16T00:56:51.767Z,27.70
2022-11-16T00:59:19.987Z,27.90
2022-11-16T01:01:55.886Z,27.37
2022-11-16T01:04:23.992Z,29.37
2022-11-16T01:06:55.978Z,29.20
2022-11-16T01:09:26.172Z,29.47
2022-11-16T01:12:10.113Z,28.77
2022-11-16T01:14:40.071Z,28.83
2022-11-16T01:17:09.133Z,27.73
2022-11-16T01:19:40.501Z,29.67
2022-11-16T01:22:09.624Z,28.97
2022-11-16T01:24:39.926Z,25.83
2022-11-16T01:27:12.212Z,30.57
2022-11-16T01:29:43.957Z,31.27
2022-11-16T01:32:14.869Z,30.43
2022-11-16T01:34:45.829Z,31.37
2022-11-16T01:37:26.900Z,29.73
2022-11-16T01:39:57.752Z,29.50
2022-11-16T01:42:29.257Z,31.07
2022-11-16T01:45:07.546Z,30.30
2022-11-16T01:47:36.574Z,30.80
2022-11-16T01:50:10.729Z,27.97
2022-11-16T01:52:45.839Z,30.50
2022-11-16T01:55:15.000Z,30.63
2022-11-16T01:58:07.633Z,29.13
2022-11-16T02:00:39.034Z,30.67
2022-11-16T02:03:26.253Z,31.20
2022-11-16T02:06:10.911Z,30.40
2022-11-16T02:09:15.381Z,31.37
2022-11-16T02:12:10.536Z,30.70
2022-11-16T02:14:53.544Z,28.80
2022-11-16T02:17:33.604Z,30.80
2022-11-16T02:20:35.182Z,32.33
2022-11-16T02:23:22.262Z,31.50
2022-11-16T02:25:57.843Z,31.90
2022-11-16T02:28:35.253Z,31.53
2022-11-16T02:31:08.684Z,32.00
2022-11-16T02:33:39.817Z,32.63
2022-11-16T02:36:15.313Z,31.20
2022-11-16T02:38:47.645Z,29.83
2022-11-16T02:41:18.961Z,31.77
2022-11-16T02:43:53.203Z,30.60
2022-11-16T02:46:30.435Z,30.93
2022-11-16T02:49:00.951Z,31.30
2022-11-16T02:51:30.355Z,31.17
2022-11-16T02:54:04.532Z,33.47
2022-11-16T02:56:43.604Z,32.17
2022-11-16T02:59:17.427Z,30.33
2022-11-16T03:01:55.726Z,33.67
2022-11-16T03:04:30.711Z,31.97
2022-11-16T03:07:02.193Z,31.13
2022-11-16T03:09:32.375Z,31.33
2022-11-16T03:12:01.286Z,31.40
2022-11-16T03:14:37.152Z,32.30
2022-11-16T03:17:11.664Z,31.73
2022-11-16T03:19:45.329Z,32.00
2022-11-16T03:22:16.579Z,32.90
2022-11-16T03:24:45.297Z,30.07
2022-11-16T03:27:23.224Z,32.50
2022-11-16T03:30:00.405Z,32.43
2022-11-16T03:32:44.617Z,33.67
2022-11-16T03:35:17.481Z,32.87
2022-11-16T03:37:49.346Z,34.10
2022-11-16T03:40:18.946Z,31.93
2022-11-16T03:42:50.628Z,33.00
2022-11-16T03:45:20.436Z,32.70
2022-11-16T03:47:54.099Z,34.10
2022-11-16T03:50:24.188Z,31.70
2022-11-16T03:52:54.403Z,32.80
2022-11-16T03:55:23.772Z,33.60
2022-11-16T03:57:53.912Z,32.60
2022-11-16T04:00:22.280Z,31.73
2022-11-16T04:02:55.135Z,32.73
2022-11-16T04:05:42.580Z,32.23
2022-11-16T04:08:33.449Z,32.63
2022-11-16T04:11:20.221Z,31.67
2022-11-16T04:14:09.358Z,32.87
2022-11-16T04:17:00.173Z,33.10
2022-11-16T04:19:47.124Z,33.20
2022-11-16T04:22:37.125Z,31.80
2022-11-16T04:25:09.872Z,34.97
2022-11-16T04:27:56.655Z,31.40
2022-11-16T04:30:25.784Z,33.77
2022-11-16T04:33:11.553Z,31.40
2022-11-16T04:36:00.144Z,32.83
2022-11-16T04:38:30.672Z,32.33
2022-11-16T04:41:01.183Z,34.37
2022-11-16T04:43:29.478Z,32.43
2022-11-16T04:46:14.927Z,33.13
2022-11-16T04:48:45.120Z,34.37
2022-11-16T04:51:14.602Z,34.10
2022-11-16T04:53:42.848Z,33.43
2022-11-16T04:56:21.132Z,33.83
2022-11-16T04:58:49.143Z,34.67
2022-11-16T05:01:56.180Z,35.37
2022-11-16T05:04:25.568Z,36.63
2022-11-16T05:07:10.908Z,35.70
2022-11-16T05:09:46.521Z,35.40
2022-11-16T05:12:18.179Z,35.53
2022-11-16T05:14:49.749Z,36.00
2022-11-16T05:17:19.892Z,35.57
2022-11-16T05:20:08.321Z,32.03
2022-11-16T05:22:54.024Z,33.13
2022-11-16T05:25:24.759Z,38.80
2022-11-16T05:27:54.083Z,35.30
2022-11-16T05:30:22.253Z,34.67
2022-11-16T05:32:53.243Z,34.80
2022-11-16T05:35:23.780Z,36.17
2022-11-16T05:37:54.446Z,36.60
2022-11-16T05:40:23.046Z,33.80
2022-11-16T05:43:01.198Z,35.37
2022-11-16T05:45:34.287Z,36.17
2022-11-16T05:48:02.975Z,35.60
2022-11-16T05:50:32.704Z,35.03
2022-11-16T05:53:33.711Z,34.87
2022-11-16T05:56:03.563Z,33.90
2022-11-16T05:58:35.303Z,33.73
2022-11-16T06:01:04.023Z,35.00
2022-11-16T06:03:33.101Z,34.20
2022-11-16T06:06:01.883Z,33.20
2022-11-16T06:08:38.969Z,34.30
2022-11-16T06:11:12.431Z,31.90
2022-11-16T06:13:41.050Z,36.07
2022-11-16T06:16:10.480Z,33.97
2022-11-16T06:18:40.597Z,36.43
2022-11-16T06:21:10.794Z,37.27
2022-11-16T06:23:40.383Z,39.03
2022-11-16T06:26:09.491Z,37.00
2022-11-16T06:28:40.281Z,35.27
2022-11-16T06:31:09.190Z,35.70
2022-11-16T06:33:43.285Z,36.90
2022-11-16T06:36:18.929Z,33.90
2022-11-16T06:38:53.549Z,35.53
2022-11-16T06:41:23.551Z,35.90
2022-11-16T06:43:56.822Z,34.30
2022-11-16T06:46:32.314Z,33.30
2022-11-16T06:49:00.577Z,32.47
2022-11-16T06:51:28.725Z,34.33
2022-11-16T06:53:58.125Z,33.33
2022-11-16T06:56:28.837Z,32.53
2022-11-16T06:58:58.933Z,33.20
2022-11-16T07:01:31.805Z,33.43
2022-11-16T07:04:05.510Z,31.20
2022-11-16T07:06:34.909Z,33.30
2022-11-16T07:09:08.638Z,32.00
2022-11-16T07:11:37.384Z,30.27
2022-11-16T07:14:05.538Z,32.73
2022-11-16T07:16:35.653Z,32.80
2022-11-16T07:19:04.795Z,31.90
2022-11-16T07:21:36.060Z,32.00
2022-11-16T07:24:09.434Z,30.83
2022-11-16T07:26:41.600Z,33.67
2022-11-16T07:29:15.712Z,34.70
2022-11-16T07:32:02.833Z,31.87
2022-11-16T07:34:55.792Z,29.70
2022-11-16T07:37:26.626Z,32.43
2022-11-16T07:40:03.551Z,30.37
2022-11-16T07:42:36.506Z,31.00
2022-11-16T07:45:22.268Z,28.20
2022-11-16T07:47:59.752Z,30.10
2022-11-16T07:50:55.448Z,29.73
2022-11-16T07:53:26.283Z,27.60
2022-11-16T07:56:12.248Z,28.37
2022-11-16T07:58:44.321Z,28.47
2022-11-16T08:01:18.265Z,28.67
2022-11-16T08:04:01.007Z,26.53
2022-11-16T08:06:34.467Z,28.40
2022-11-16T08:09:05.481Z,27.80
2022-11-16T08:11:49.167Z,28.33
2022-11-16T08:14:20.339Z,28.03
2022-11-16T08:16:59.106Z,27.43
2022-11-16T08:19:27.730Z,26.27
2022-11-16T08:21:57.823Z,28.00
2022-11-16T08:24:33.429Z,27.37
2022-11-16T08:27:19.851Z,29.47
2022-11-16T08:30:04.292Z,29.13
2022-11-16T08:32:41.290Z,25.90
2022-11-16T08:35:13.000Z,26.17
2022-11-16T08:37:45.412Z,25.83
2022-11-16T08:40:16.594Z,26.73
2022-11-16T08:43:00.635Z,23.93
2022-11-16T08:45:31.770Z,24.53
2022-11-16T08:48:11.968Z,23.87
2022-11-16T08:51:02.296Z,24.13
2022-11-16T08:53:32.780Z,24.83
2022-11-16T08:56:09.593Z,24.13
2022-11-16T08:59:06.978Z,25.10
2022-11-16T09:01:40.756Z,24.97
2022-11-16T09:04:19.664Z,24.87
2022-11-16T09:06:53.545Z,24.63
2022-11-16T09:09:23.604Z,25.93
2022-11-16T09:11:55.690Z,26.07
2022-11-16T09:14:35.238Z,24.27
2022-11-16T09:17:05.737Z,23.63
2022-11-16T09:19:34.202Z,22.70
2022-11-16T09:22:06.133Z,24.00
2022-11-16T09:24:38.975Z,25.63
2022-11-16T09:27:16.901Z,25.10
2022-11-16T09:29:47.525Z,24.37
2022-11-16T09:32:17.881Z,24.70
2022-11-16T09:34:50.126Z,24.70
2022-11-16T09:37:21.171Z,24.87
2022-11-16T09:39:50.986Z,24.47
2022-11-16T09:42:35.240Z,24.03
2022-11-16T09:45:23.773Z,23.57
2022-11-16T09:48:09.029Z,24.07
2022-11-16T09:50:55.942Z,24.73
2022-11-16T09:53:40.472Z,25.27
2022-11-16T09:56:20.751Z,26.83
2022-11-16T09:59:00.280Z,26.17
2022-11-16T10:01:41.816Z,24.53
2022-11-16T10:04:14.205Z,25.07
2022-11-16T10:06:58.965Z,23.67
2022-11-16T10:09:30.332Z,22.70
2022-11-16T10:12:18.244Z,22.30
2022-11-16T10:15:13.895Z,20.63
2022-11-16T10:21:27.199Z,22.20
2022-11-16T10:24:13.534Z,21.50
2022-11-16T10:26:59.630Z,22.33
2022-11-16T10:29:45.396Z,24.60
2022-11-16T10:32:25.024Z,23.03
2022-11-16T10:35:04.076Z,21.67
2022-11-16T10:37:39.485Z,21.83
2022-11-16T10:40:33.608Z,21.53
2022-11-16T10:43:06.281Z,22.07
2022-11-16T10:45:41.009Z,22.07
2022-11-16T10:48:23.489Z,21.40
2022-11-16T10:51:04.632Z,19.70
2022-11-16T10:53:44.581Z,20.63
2022-11-16T10:56:27.710Z,20.20
2022-11-16T10:59:08.182Z,21.20
2022-11-16T11:01:41.993Z,20.13
2022-11-16T11:04:16.943Z,19.30
2022-11-16T11:06:55.135Z,19.00
2022-11-16T11:09:28.630Z,20.70
2022-11-16T11:12:24.183Z,20.60
2022-11-16T11:15:08.709Z,20.27
2022-11-16T11:17:38.669Z,20.90
2022-11-16T11:20:23.086Z,20.20
2022-11-16T11:23:16.871Z,19.10
2022-11-16T11:25:53.360Z,20.47
2022-11-16T11:28:37.835Z,17.90
2022-11-16T11:31:17.407Z,18.77
2022-11-16T11:33:52.134Z,19.30
2022-11-16T11:36:22.955Z,16.30
2022-11-16T11:39:13.461Z,15.33
2022-11-16T11:41:51.778Z,15.20
2022-11-16T11:44:24.766Z,15.20
2022-11-16T11:47:42.366Z,14.40
2022-11-16T11:50:08.124Z,14.23
2022-11-16T11:52:44.473Z,13.70
2022-11-16T11:55:42.800Z,12.00
2022-11-16T11:58:19.583Z,11.00
2022-11-16T12:01:10.172Z,11.80
2022-11-16T12:04:16.966Z,12.07
2022-11-16T12:06:53.806Z,13.80
2022-11-16T12:09:40.092Z,12.07
2022-11-16T12:12:29.733Z,13.00
2022-11-16T12:15:26.170Z,13.00
2022-11-16T12:17:59.618Z,14.93
2022-11-16T12:20:37.905Z,13.73
2022-11-16T12:23:40.252Z,12.27
2022-11-16T12:26:19.222Z,12.23
2022-11-16T12:29:13.255Z,14.10
2022-11-16T12:32:16.754Z,14.80
2022-11-16T12:35:00.434Z,13.37
2022-11-16T12:37:39.161Z,13.40
2022-11-16T12:40:23.920Z,14.40
2022-11-16T12:43:14.745Z,15.50
2022-11-16T12:46:19.515Z,14.43
2022-11-16T12:49:34.512Z,12.70
2022-11-16T12:53:01.082Z,11.10
2022-11-16T12:55:35.115Z,9.97
2022-11-16T12:58:15.279Z,17.07
2022-11-16T13:01:03.344Z,13.03
2022-11-16T13:03:38.040Z,15.00
2022-11-16T13:06:13.732Z,13.73
2022-11-16T13:09:00.059Z,13.97
2022-11-16T13:11:41.735Z,16.83
2022-11-16T13:14:26.123Z,15.93
2022-11-16T13:16:59.194Z,16.40
2022-11-16T13:19:31.463Z,14.97
2022-11-16T13:22:14.915Z,16.37
2022-11-16T13:24:55.907Z,17.10
2022-11-16T13:27:39.977Z,15.87
2022-11-16T13:30:18.943Z,16.27
2022-11-16T13:33:30.286Z,13.63
2022-11-16T13:36:02.533Z,11.27
2022-11-16T13:38:59.607Z,11.30
2022-11-16T13:41:32.387Z,9.27
2022-11-16T13:44:01.663Z,8.80
2022-11-16T13:46:55.870Z,8.40
2022-11-16T13:49:30.632Z,8.80
2022-11-16T13:52:17.339Z,8.60
2022-11-16T13:55:02.266Z,8.60
2022-11-16T13:57:36.348Z,7.40
2022-11-16T14:00:15.578Z,7.23
2022-11-16T14:05:51.367Z,6.60
2022-11-16T14:08:54.948Z,7.50
2022-11-16T14:11:36.022Z,7.33
2022-11-16T14:14:09.420Z,6.70
2022-11-16T14:16:58.222Z,7.83
2022-11-16T14:19:58.817Z,7.83
2022-11-16T14:22:48.098Z,7.87
2022-11-16T14:25:31.528Z,8.20
2022-11-16T14:28:35.682Z,8.93
2022-11-16T14:31:19.352Z,8.53
2022-11-16T14:34:00.586Z,7.63
2022-11-16T14:36:49.489Z,10.63
2022-11-16T14:39:41.101Z,8.83
2022-11-16T14:42:22.235Z,8.50
2022-11-16T14:45:00.631Z,8.83
2022-11-16T14:47:46.068Z,9.13
2022-11-16T14:50:26.471Z,8.90
2022-11-16T14:52:58.516Z,9.63
2022-11-16T14:55:35.945Z,9.77
2022-11-16T14:58:14.221Z,9.80
2022-11-16T15:00:53.846Z,10.30
2022-11-16T15:03:24.501Z,8.80
2022-11-16T15:08:58.990Z,8.83
2022-11-16T15:11:56.246Z,10.50
2022-11-16T15:14:28.579Z,10.40
2022-11-16T15:17:10.440Z,12.23
2022-11-16T15:19:41.874Z,11.03
2022-11-16T15:22:21.774Z,10.90
2022-11-16T15:25:24.258Z,11.80
2022-11-16T15:27:57.746Z,11.60
2022-11-16T15:30:34.152Z,13.00
2022-11-16T15:33:08.040Z,11.80
2022-11-16T15:35:39.781Z,12.97
2022-11-16T15:38:18.712Z,10.73
2022-11-16T15:40:50.973Z,10.40
2022-11-16T15:43:21.789Z,11.80
2022-11-16T15:45:55.215Z,10.90
2022-11-16T15:48:44.206Z,10.73
2022-11-16T15:51:20.158Z,11.70
2022-11-16T15:53:56.954Z,10.27
2022-11-16T15:56:36.527Z,11.20
2022-11-16T15:59:24.246Z,11.60
2022-11-16T16:01:53.988Z,12.20
2022-11-16T16:04:35.200Z,10.70
2022-11-16T16:07:03.414Z,11.20
2022-11-16T16:09:42.099Z,11.87
2022-11-16T16:12:19.014Z,10.90
2022-11-16T16:14:50.299Z,11.80
2022-11-16T16:17:27.120Z,10.33
2022-11-16T16:20:17.194Z,12.80
2022-11-16T16:22:46.458Z,11.33
2022-11-16T16:25:29.470Z,10.87
2022-11-16T16:27:59.356Z,11.13
2022-11-16T16:30:29.711Z,11.93
2022-11-16T16:33:02.312Z,10.43
2022-11-16T16:35:37.358Z,11.23
2022-11-16T16:38:18.732Z,11.83
2022-11-16T16:40:53.696Z,10.47
2022-11-16T16:43:25.084Z,10.20
2022-11-16T16:46:02.859Z,10.40
2022-11-16T16:48:31.246Z,10.47
2022-11-16T16:51:07.319Z,10.80
2022-11-16T16:53:35.947Z,11.40
2022-11-16T16:56:06.730Z,10.70
2022-11-16T16:58:35.758Z,12.13
2022-11-16T17:01:06.282Z,10.60
2022-11-16T17:03:35.066Z,10.77
2022-11-16T17:06:06.027Z,9.73
2022-11-16T17:08:44.959Z,9.60
2022-11-16T17:11:18.407Z,11.07
2022-11-16T17:13:47.833Z,11.10
2022-11-16T17:16:18.287Z,10.30
2022-11-16T17:18:55.141Z,10.40
2022-11-16T17:21:33.589Z,11.07
2022-11-16T17:24:07.219Z,11.30
2022-11-16T17:26:37.441Z,10.90
2022-11-16T17:29:07.177Z,12.10
2022-11-16T17:31:37.309Z,12.53
2022-11-16T17:34:10.733Z,11.70
2022-11-16T17:36:45.587Z,13.20
2022-11-16T17:39:21.337Z,11.10
2022-11-16T17:41:57.163Z,12.20
2022-11-16T17:44:27.290Z,13.03
2022-11-16T17:47:02.173Z,11.90
2022-11-16T17:49:31.483Z,12.63
2022-11-16T17:52:01.918Z,12.03
2022-11-16T17:54:34.909Z,11.57
2022-11-16T17:57:06.094Z,12.30
2022-11-16T17:59:37.026Z,10.40
2022-11-16T18:02:07.650Z,11.23
2022-11-16T18:04:38.323Z,10.00
2022-11-16T18:07:09.390Z,9.93
2022-11-16T18:09:43.057Z,10.07
2022-11-16T18:12:15.368Z,11.83
2022-11-16T18:14:59.955Z,11.63
2022-11-16T18:17:36.775Z,11.90
2022-11-16T18:20:08.854Z,9.07
2022-11-16T18:22:40.539Z,11.13
2022-11-16T18:25:18.160Z,10.13
2022-11-16T18:28:05.705Z,10.27
2022-11-16T18:30:39.835Z,9.80
2022-11-16T18:33:09.963Z,8.60
2022-11-16T18:35:46.171Z,10.40
2022-11-16T18:38:15.973Z,10.63
2022-11-16T18:40:49.975Z,9.10
2022-11-16T18:43:20.572Z,9.63
2022-11-16T18:45:58.725Z,13.13
2022-11-16T18:48:28.131Z,12.60
2022-11-16T18:51:00.914Z,11.47
2022-11-16T18:53:35.229Z,9.07
2022-11-16T18:56:07.876Z,9.10
2022-11-16T18:58:54.084Z,9.83
2022-11-16T19:01:30.045Z,10.40
2022-11-16T19:04:04.967Z,10.13
2022-11-16T19:06:37.536Z,8.93
2022-11-16T19:09:09.772Z,7.03
2022-11-16T19:11:42.265Z,8.37
2022-11-16T19:14:15.094Z,8.23
2022-11-16T19:16:52.535Z,8.00
2022-11-16T19:19:30.089Z,7.23
2022-11-16T19:22:00.411Z,7.00
2022-11-16T19:24:40.422Z,6.90
2022-11-16T19:27:11.574Z,6.37
2022-11-16T19:29:42.706Z,6.37
2022-11-16T19:32:15.723Z,5.57
2022-11-16T19:34:47.272Z,5.87
2022-11-16T19:37:17.014Z,4.90
2022-11-16T19:39:48.234Z,6.60
2022-11-16T19:42:23.717Z,5.30
2022-11-16T19:45:00.799Z,6.20
2022-11-16T19:47:32.188Z,5.50
2022-11-16T19:50:02.069Z,5.60
2022-11-16T19:52:32.148Z,4.60
2022-11-16T19:55:01.228Z,5.10
2022-11-16T19:57:34.593Z,6.00
2022-11-16T20:00:05.712Z,5.27
2022-11-16T20:02:37.947Z,5.87
2022-11-16T20:05:09.714Z,5.00
2022-11-16T20:07:40.236Z,5.53
2022-11-16T20:10:11.532Z,5.27
2022-11-16T20:12:44.984Z,5.90
2022-11-16T20:15:15.027Z,5.83
2022-11-16T20:17:44.861Z,5.80
2022-11-16T20:20:24.352Z,6.03
2022-11-16T20:22:59.200Z,5.60
2022-11-16T20:25:33.595Z,4.97
2022-11-16T20:28:06.043Z,5.43
2022-11-16T20:30:36.487Z,4.97
2022-11-16T20:33:06.093Z,5.03
2022-11-16T20:35:36.665Z,5.53
2022-11-16T20:38:06.074Z,5.43
2022-11-16T20:40:36.724Z,5.43
2022-11-16T20:43:09.557Z,5.70
2022-11-16T20:45:40.054Z,5.70
2022-11-16T20:48:12.201Z,6.20
2022-11-16T20:50:45.282Z,6.13
2022-11-16T20:53:17.413Z,5.90
2022-11-16T20:55:48.076Z,5.37
2022-11-16T20:58:23.047Z,5.13
2022-11-16T21:01:03.656Z,5.27
2022-11-16T21:03:33.000Z,4.53
2022-11-16T21:06:02.664Z,5.60
2022-11-16T21:08:33.661Z,5.20
2022-11-16T21:11:02.231Z,5.47
2022-11-16T21:13:49.392Z,5.40
2022-11-16T21:16:18.631Z,6.10
2022-11-16T21:18:46.862Z,4.90
2022-11-16T21:21:15.684Z,5.60
2022-11-16T21:23:52.997Z,7.67
2022-11-16T21:26:24.188Z,6.97
2022-11-16T21:28:56.462Z,5.70
2022-11-16T21:31:26.883Z,5.60
2022-11-16T21:34:01.183Z,5.27
2022-11-16T21:36:30.848Z,5.07
2022-11-16T21:38:59.424Z,5.03
2022-11-16T21:41:30.728Z,5.90
2022-11-16T21:44:06.503Z,6.17
2022-11-16T21:46:42.931Z,6.63
2022-11-16T21:49:14.003Z,5.70
2022-11-16T21:51:42.673Z,4.57
2022-11-16T21:54:19.349Z,5.47
2022-11-16T21:56:49.011Z,5.10
2022-11-16T21:59:23.273Z,5.20
2022-11-16T22:02:05.793Z,5.80
2022-11-16T22:04:52.676Z,7.07
2022-11-16T22:07:38.841Z,6.50
2022-11-16T22:10:08.676Z,5.40
2022-11-16T22:12:39.782Z,6.40
2022-11-16T22:15:12.815Z,5.67
2022-11-16T22:17:44.713Z,5.50
2022-11-16T22:20:14.549Z,5.20
2022-11-16T22:22:43.752Z,5.97
2022-11-16T22:25:16.791Z,6.30
2022-11-16T22:28:18.602Z,6.00
2022-11-16T22:30:38.761Z,6.50
2022-11-16T22:33:12.740Z,6.30
2022-11-16T22:35:41.460Z,6.50
2022-11-16T22:38:11.021Z,6.30
2022-11-16T22:40:41.994Z,6.40
2022-11-16T22:43:15.034Z,7.33
2022-11-16T22:45:44.824Z,6.00
2022-11-16T22:48:15.223Z,5.90
2022-11-16T22:50:46.184Z,6.53
2022-11-16T22:53:14.232Z,6.87
2022-11-16T22:55:44.479Z,7.10
2022-11-16T22:58:15.704Z,6.30
2022-11-16T23:00:48.615Z,8.27
2022-11-16T23:03:18.922Z,7.13
2022-11-16T23:05:47.697Z,6.83
2022-11-16T23:08:15.924Z,7.43
2022-11-16T23:11:00.377Z,12.40
2022-11-16T23:13:46.671Z,7.50
2022-11-16T23:16:21.532Z,5.60
2022-11-16T23:18:57.448Z,5.90
2022-11-16T23:21:44.554Z,6.80
2022-11-16T23:24:32.543Z,5.70
2022-11-16T23:27:23.960Z,6.40
2022-11-16T23:29:58.119Z,5.40
2022-11-16T23:32:30.432Z,5.50
2022-11-16T23:35:08.014Z,5.73
2022-11-16T23:38:00.642Z,5.93
2022-11-16T23:40:30.770Z,6.20
2022-11-16T23:43:17.274Z,6.13
2022-11-16T23:45:46.658Z,5.93
2022-11-16T23:48:22.573Z,5.77
2022-11-16T23:50:53.142Z,5.37
2022-11-16T23:53:23.989Z,5.80
2022-11-16T23:55:55.091Z,6.70
2022-11-16T23:58:23.735Z,6.07
